Time;durP1;ratioP1;P1;durP2;ratioP2;P2;SDS_P1;SDS_P2;PMS_P1;PMS_P2;Temp;Humidity;BMP_temperature;BMP_pressure;BME280_temperature;BME280_humidity;BME280_pressure;Samples;Min_cycle;Max_cycle;Signal;HPM_P1;HPM_P2
2021/04/22 00:00:11;;;;;;;19.27;3.53;;;5.20;99.90;;;;;;5081938;28;20309;-66
2021/04/22 00:02:39;;;;;;;16.87;3.13;;;5.10;99.90;;;;;;5080194;28;20184;-65
2021/04/22 00:05:18;;;;;;;11.77;3.40;;;5.10;99.90;;;;;;5082015;28;20204;-65
2021/04/22 00:07:45;;;;;;;18.47;3.50;;;5.10;99.90;;;;;;5086721;28;20229;-65
2021/04/22 00:10:15;;;;;;;12.27;2.97;;;5.10;99.90;;;;;;5083106;28;20215;-66
2021/04/22 00:12:42;;;;;;;17.77;2.80;;;5.00;99.90;;;;;;5081060;28;20199;-65
2021/04/22 00:15:14;;;;;;;20.10;3.73;;;4.90;99.90;;;;;;5084442;28;20290;-65
2021/04/22 00:17:41;;;;;;;16.13;2.97;;;4.90;99.90;;;;;;5082336;28;20235;-66
2021/04/22 00:20:10;;;;;;;14.50;3.67;;;4.80;99.90;;;;;;5076826;28;20345;-65
2021/04/22 00:22:39;;;;;;;16.67;3.30;;;4.80;99.90;;;;;;5082983;28;20218;-65
2021/04/22 00:25:07;;;;;;;16.77;3.70;;;4.80;99.90;;;;;;5081625;28;20184;-65
2021/04/22 00:27:35;;;;;;;10.37;3.03;;;4.70;99.90;;;;;;5090399;28;20176;-65
2021/04/22 00:30:03;;;;;;;13.73;3.20;;;4.70;99.90;;;;;;5081397;28;20208;-65
2021/04/22 00:32:31;;;;;;;19.27;3.97;;;4.60;99.90;;;;;;5082275;28;20400;-65
2021/04/22 00:34:58;;;;;;;13.53;3.80;;;4.60;99.90;;;;;;5077131;28;20192;-65
2021/04/22 00:37:26;;;;;;;23.53;3.70;;;4.60;99.90;;;;;;5081420;28;20870;-65
2021/04/22 00:39:54;;;;;;;19.13;3.47;;;4.60;99.90;;;;;;5082657;28;20206;-65
2021/04/22 00:42:21;;;;;;;15.30;3.53;;;4.60;99.90;;;;;;5087689;28;20412;-65
2021/04/22 00:44:50;;;;;;;17.73;3.43;;;4.50;99.90;;;;;;5077298;28;20235;-65
2021/04/22 00:47:18;;;;;;;18.30;3.57;;;4.50;99.90;;;;;;5081103;28;20190;-66
2021/04/22 00:49:46;;;;;;;20.63;3.70;;;4.40;99.90;;;;;;5088727;28;20226;-65
2021/04/22 00:52:13;;;;;;;15.67;3.30;;;4.40;99.90;;;;;;5081399;28;20730;-66
2021/04/22 00:54:41;;;;;;;14.83;4.10;;;4.40;99.90;;;;;;5082220;28;20234;-66
2021/04/22 00:57:09;;;;;;;19.83;3.60;;;4.30;99.90;;;;;;5083717;28;20183;-65
2021/04/22 00:59:37;;;;;;;20.60;3.20;;;4.30;99.90;;;;;;5082667;28;20180;-65
2021/04/22 01:02:32;;;;;;;15.30;3.03;;;4.30;99.90;;;;;;5077432;28;20247;-65
2021/04/22 01:05:02;;;;;;;17.23;3.50;;;4.30;99.90;;;;;;5079569;28;20216;-65
2021/04/22 01:07:32;;;;;;;16.33;3.80;;;4.20;99.90;;;;;;5079819;28;20238;-65
2021/04/22 01:10:00;;;;;;;20.20;3.47;;;4.10;99.90;;;;;;5087620;28;20246;-65
2021/04/22 01:12:28;;;;;;;14.63;3.27;;;4.00;99.90;;;;;;5081426;28;20179;-65
2021/04/22 01:15:16;;;;;;;12.97;4.00;;;4.00;99.90;;;;;;5079855;28;20183;-66
2021/04/22 01:17:43;;;;;;;13.97;3.43;;;3.90;99.90;;;;;;5078521;28;20248;-65
2021/04/22 01:20:13;;;;;;;16.73;3.23;;;3.90;99.90;;;;;;5088165;28;20396;-65
2021/04/22 01:22:42;;;;;;;15.67;3.37;;;3.90;99.90;;;;;;5084827;28;20169;-65
2021/04/22 01:25:15;;;;;;;16.93;3.53;;;3.80;99.90;;;;;;5081029;28;20187;-65
2021/04/22 01:27:43;;;;;;;13.17;3.23;;;3.70;99.90;;;;;;5082025;28;20208;-65
2021/04/22 01:30:13;;;;;;;18.77;3.67;;;3.60;99.90;;;;;;5082381;28;20250;-65
2021/04/22 01:32:41;;;;;;;14.30;4.20;;;3.50;99.90;;;;;;5078281;28;20245;-66
2021/04/22 01:35:11;;;;;;;16.83;3.90;;;3.50;99.90;;;;;;5081044;28;20247;-65
2021/04/22 01:37:38;;;;;;;14.40;3.53;;;3.40;99.90;;;;;;5089208;28;20184;-65
2021/04/22 01:40:08;;;;;;;15.03;3.97;;;3.40;99.90;;;;;;5078322;28;20181;-65
2021/04/22 01:42:37;;;;;;;11.87;3.70;;;3.40;99.90;;;;;;5082950;28;20209;-65
2021/04/22 01:45:06;;;;;;;12.77;3.53;;;3.30;99.90;;;;;;5080662;28;20403;-66
2021/04/22 01:47:34;;;;;;;12.13;3.20;;;3.20;99.90;;;;;;5080976;28;20258;-65
2021/04/22 01:50:02;;;;;;;15.63;3.73;;;3.20;99.90;;;;;;5080528;28;20200;-65
2021/04/22 01:52:29;;;;;;;15.60;3.30;;;3.10;99.90;;;;;;5080667;28;20409;-66
2021/04/22 01:54:57;;;;;;;15.50;3.33;;;3.00;99.90;;;;;;5082051;28;20173;-66
2021/04/22 01:57:25;;;;;;;16.23;3.53;;;2.90;99.90;;;;;;5082842;28;20204;-65
2021/04/22 01:59:52;;;;;;;15.13;3.27;;;2.80;99.90;;;;;;5077813;28;20445;-65
2021/04/22 02:02:20;;;;;;;14.80;3.77;;;2.70;99.90;;;;;;5082249;28;20179;-65
2021/04/22 02:04:47;;;;;;;22.10;3.83;;;2.70;99.90;;;;;;5080614;28;20222;-65
2021/04/22 02:07:15;;;;;;;12.77;3.63;;;2.70;99.90;;;;;;5080117;28;20180;-65
2021/04/22 02:09:42;;;;;;;20.50;4.37;;;2.80;99.90;;;;;;5083217;28;20168;-65
2021/04/22 02:12:10;;;;;;;22.43;3.80;;;2.80;99.90;;;;;;5082387;28;20181;-65
2021/04/22 02:14:38;;;;;;;15.07;3.53;;;2.80;99.90;;;;;;5081818;28;20196;-65
2021/04/22 02:17:05;;;;;;;16.60;3.90;;;2.80;99.90;;;;;;5077053;28;20281;-65
2021/04/22 02:19:33;;;;;;;17.83;3.97;;;2.80;99.90;;;;;;5085276;28;20180;-65
2021/04/22 02:22:00;;;;;;;22.57;3.87;;;2.90;99.90;;;;;;5088344;28;20293;-65
2021/04/22 02:24:27;;;;;;;12.60;3.47;;;2.90;99.90;;;;;;5088089;28;20182;-65
2021/04/22 02:26:55;;;;;;;17.10;3.77;;;3.00;99.90;;;;;;5075642;28;20242;-65
2021/04/22 02:29:22;;;;;;;14.63;3.73;;;3.10;99.90;;;;;;5081880;28;20265;-65
2021/04/22 02:31:51;;;;;;;19.63;3.80;;;3.10;99.90;;;;;;5080613;28;20388;-65
2021/04/22 02:34:18;;;;;;;23.40;3.80;;;3.20;99.90;;;;;;5081610;28;20172;-65
2021/04/22 02:36:45;;;;;;;18.87;3.70;;;3.30;99.90;;;;;;5081179;28;20208;-65
2021/04/22 02:39:13;;;;;;;17.40;3.60;;;3.30;99.90;;;;;;5086026;28;20192;-65
2021/04/22 02:41:40;;;;;;;17.97;4.37;;;3.20;99.90;;;;;;5080379;28;20184;-65
2021/04/22 02:44:13;;;;;;;19.83;4.67;;;3.20;99.90;;;;;;5090443;28;20228;-65
2021/04/22 02:46:40;;;;;;;33.60;4.37;;;3.20;99.90;;;;;;5082667;28;20257;-65
2021/04/22 02:49:08;;;;;;;22.47;4.30;;;3.20;99.90;;;;;;5077301;28;20189;-65
2021/04/22 02:51:35;;;;;;;18.90;4.23;;;3.20;99.90;;;;;;5082184;28;20214;-65
2021/04/22 02:54:03;;;;;;;21.73;3.93;;;3.20;99.90;;;;;;5079668;28;20209;-65
2021/04/22 02:56:33;;;;;;;18.20;4.10;;;3.10;99.90;;;;;;5083566;28;20172;-65
2021/04/22 02:59:01;;;;;;;11.30;3.70;;;3.10;99.90;;;;;;5079024;28;20180;-65
2021/04/22 03:01:30;;;;;;;24.07;4.10;;;3.00;99.90;;;;;;5077164;28;20187;-65
2021/04/22 03:03:58;;;;;;;21.37;4.33;;;2.90;99.90;;;;;;5083347;28;20208;-66
2021/04/22 03:10:33;;;;;;;14.97;3.43;;;2.70;99.90;;;;;;5069180;28;20215;-65
2021/04/22 03:13:01;;;;;;;22.90;4.23;;;2.70;99.90;;;;;;5081650;28;20187;-65
2021/04/22 03:15:33;;;;;;;12.83;3.93;;;2.70;99.90;;;;;;5082726;28;20230;-65
2021/04/22 03:18:00;;;;;;;13.47;4.00;;;2.60;99.90;;;;;;5083226;28;20269;-65
2021/04/22 03:20:27;;;;;;;19.27;3.97;;;2.60;99.90;;;;;;5072570;28;20391;-65
2021/04/22 03:22:55;;;;;;;16.73;4.10;;;2.50;99.90;;;;;;5085874;28;20226;-65
2021/04/22 03:25:25;;;;;;;17.13;4.00;;;2.40;99.90;;;;;;5084686;28;20222;-65
2021/04/22 03:27:53;;;;;;;19.03;4.40;;;2.30;99.90;;;;;;5087094;28;20176;-65
2021/04/22 03:30:24;;;;;;;19.10;3.80;;;2.10;99.90;;;;;;5081645;28;20208;-65
2021/04/22 03:32:51;;;;;;;28.40;4.50;;;2.00;99.90;;;;;;5091479;28;20188;-65
2021/04/22 03:35:20;;;;;;;15.73;4.40;;;1.90;99.90;;;;;;5081134;28;20255;-65
2021/04/22 03:37:47;;;;;;;19.37;4.47;;;2.00;99.90;;;;;;5092463;28;20198;-65
2021/04/22 03:40:17;;;;;;;12.97;3.77;;;1.90;99.90;;;;;;5083958;28;20183;-65
2021/04/22 03:42:44;;;;;;;19.17;3.73;;;1.80;99.90;;;;;;5084578;28;20183;-65
2021/04/22 03:45:15;;;;;;;14.33;4.23;;;1.70;99.90;;;;;;5084523;28;20176;-65
2021/04/22 03:47:43;;;;;;;23.47;4.80;;;1.70;99.90;;;;;;5081441;28;20208;-65
2021/04/22 03:50:13;;;;;;;13.90;4.10;;;1.60;99.90;;;;;;5084354;28;20192;-65
2021/04/22 03:52:41;;;;;;;17.30;5.37;;;1.60;99.90;;;;;;5077473;28;20348;-65
2021/04/22 03:55:10;;;;;;;18.03;5.20;;;1.60;99.90;;;;;;5081653;28;20348;-65
2021/04/22 03:57:37;;;;;;;20.50;4.53;;;1.60;99.90;;;;;;5084257;28;20226;-65
2021/04/22 04:00:07;;;;;;;18.10;4.40;;;1.50;99.90;;;;;;5083789;28;20207;-65
2021/04/22 04:02:35;;;;;;;17.13;4.87;;;1.50;99.90;;;;;;5078324;28;20200;-65
2021/04/22 04:05:03;;;;;;;21.27;4.67;;;1.50;99.90;;;;;;5082122;28;20199;-65
2021/04/22 04:07:30;;;;;;;17.27;4.50;;;1.50;99.90;;;;;;5083365;28;20355;-65
2021/04/22 04:09:58;;;;;;;24.53;4.90;;;1.40;99.90;;;;;;5084080;28;20294;-65
2021/04/22 04:12:27;;;;;;;13.07;4.83;;;1.40;99.90;;;;;;5080724;28;20192;-65
2021/04/22 04:14:54;;;;;;;19.37;4.40;;;1.30;99.90;;;;;;5079609;28;20191;-65
2021/04/22 04:17:22;;;;;;;20.03;4.77;;;1.30;99.90;;;;;;5063778;28;20673;-65
2021/04/22 04:19:51;;;;;;;12.13;4.10;;;1.20;99.90;;;;;;5082836;28;20207;-65
2021/04/22 04:22:19;;;;;;;24.73;5.40;;;1.20;99.90;;;;;;5078734;28;20176;-65
2021/04/22 04:24:46;;;;;;;20.63;4.17;;;1.10;99.90;;;;;;5080322;28;20458;-65
2021/04/22 04:27:17;;;;;;;23.67;4.67;;;1.10;99.90;;;;;;5082224;28;20397;-65
2021/04/22 04:29:44;;;;;;;15.00;4.90;;;1.00;99.90;;;;;;5083607;28;20200;-65
2021/04/22 04:32:11;;;;;;;30.30;5.53;;;1.00;99.90;;;;;;5081307;28;20199;-65
2021/04/22 04:34:39;;;;;;;18.37;5.87;;;1.00;99.90;;;;;;5079625;28;20225;-65
2021/04/22 04:37:07;;;;;;;14.53;5.73;;;1.00;99.90;;;;;;5081383;28;20385;-65
2021/04/22 04:39:34;;;;;;;25.00;5.83;;;1.00;99.90;;;;;;5081821;28;20180;-65
2021/04/22 04:42:02;;;;;;;24.60;6.17;;;1.00;99.90;;;;;;5083204;28;20365;-65
2021/04/22 04:44:31;;;;;;;20.97;5.50;;;1.10;99.90;;;;;;5080075;28;20184;-65
2021/04/22 04:46:58;;;;;;;20.93;5.07;;;1.10;99.90;;;;;;5079438;28;20184;-65
2021/04/22 04:49:26;;;;;;;19.40;5.53;;;1.00;99.90;;;;;;5080804;28;20203;-65
2021/04/22 04:51:53;;;;;;;21.40;5.73;;;1.00;99.90;;;;;;5081481;28;20219;-65
2021/04/22 04:54:21;;;;;;;25.00;5.87;;;1.10;99.90;;;;;;5087066;28;20192;-65
2021/04/22 04:56:49;;;;;;;19.83;5.80;;;1.10;99.90;;;;;;5080402;28;20188;-65
2021/04/22 04:59:16;;;;;;;23.90;5.50;;;1.20;99.90;;;;;;5082077;28;20282;-65
2021/04/22 05:01:43;;;;;;;27.97;5.63;;;1.20;99.90;;;;;;5070973;28;20204;-65
2021/04/22 05:04:11;;;;;;;22.27;5.37;;;1.30;99.90;;;;;;5083028;28;20187;-65
2021/04/22 05:06:39;;;;;;;21.50;5.67;;;1.30;99.90;;;;;;5077678;28;20180;-65
2021/04/22 05:09:08;;;;;;;23.67;5.17;;;1.30;99.90;;;;;;5088598;28;20187;-65
2021/04/22 05:11:36;;;;;;;23.37;6.00;;;1.30;99.90;;;;;;5080692;28;20208;-65
2021/04/22 05:14:04;;;;;;;26.93;6.80;;;1.30;99.90;;;;;;5084570;28;20184;-65
2021/04/22 05:16:31;;;;;;;30.33;6.10;;;1.40;99.90;;;;;;5076637;28;20285;-65
2021/04/22 05:18:59;;;;;;;29.57;5.90;;;1.40;99.90;;;;;;5084042;28;20203;-65
2021/04/22 05:21:27;;;;;;;19.67;5.57;;;1.50;99.90;;;;;;5081931;28;20172;-65
2021/04/22 05:23:56;;;;;;;23.53;6.37;;;1.50;99.90;;;;;;5086595;28;20183;-65
2021/04/22 05:26:24;;;;;;;34.90;5.87;;;1.60;99.90;;;;;;5078574;28;20196;-65
2021/04/22 05:28:54;;;;;;;25.27;6.13;;;1.70;99.90;;;;;;5080121;28;20199;-65
2021/04/22 05:31:22;;;;;;;25.23;5.83;;;1.80;99.90;;;;;;5081076;28;20199;-65
2021/04/22 05:33:50;;;;;;;22.87;5.43;;;1.90;99.90;;;;;;5080731;28;20425;-65
2021/04/22 05:36:17;;;;;;;23.00;5.90;;;2.20;99.90;;;;;;5079010;28;20190;-65
2021/04/22 05:38:44;;;;;;;21.87;5.57;;;2.50;99.90;;;;;;5081953;28;20233;-66
2021/04/22 05:41:13;;;;;;;21.10;5.83;;;2.90;99.90;;;;;;5084045;28;20207;-65
2021/04/22 05:43:40;;;;;;;19.33;6.03;;;3.30;99.90;;;;;;5087680;28;20184;-65
2021/04/22 05:46:45;;;;;;;18.37;5.93;;;3.70;99.90;;;;;;5080788;28;20197;-65
2021/04/22 05:49:13;;;;;;;16.77;5.40;;;4.10;99.90;;;;;;5078354;28;20206;-65
2021/04/22 05:51:42;;;;;;;24.43;5.63;;;4.60;99.90;;;;;;5080322;28;20487;-66
2021/04/22 05:54:10;;;;;;;23.03;5.40;;;5.00;99.90;;;;;;5082587;28;20180;-66
2021/04/22 05:56:38;;;;;;;20.23;6.30;;;5.30;99.90;;;;;;5080428;28;20184;-66
2021/04/22 05:59:06;;;;;;;17.20;5.63;;;5.50;99.90;;;;;;5081921;28;20743;-66
2021/04/22 06:01:33;;;;;;;21.57;6.10;;;5.70;99.90;;;;;;5075626;28;20443;-65
2021/04/22 06:04:01;;;;;;;24.73;6.37;;;5.90;99.90;;;;;;5075985;28;20184;-66
2021/04/22 06:06:29;;;;;;;21.37;6.57;;;6.00;99.90;;;;;;5082231;28;20179;-66
2021/04/22 06:08:56;;;;;;;22.20;6.07;;;6.00;99.90;;;;;;5086965;28;20191;-66
2021/04/22 06:11:24;;;;;;;31.00;6.47;;;6.20;99.90;;;;;;5082122;28;20250;-66
2021/04/22 06:13:54;;;;;;;20.13;5.97;;;6.50;99.90;;;;;;5085822;28;20397;-66
2021/04/22 06:16:21;;;;;;;26.30;6.13;;;6.80;99.90;;;;;;5089229;28;20236;-66
2021/04/22 06:18:49;;;;;;;20.73;5.83;;;7.20;99.90;;;;;;5083417;28;20241;-66
2021/04/22 06:21:16;;;;;;;22.40;6.10;;;7.20;99.90;;;;;;5082046;28;20190;-66
2021/04/22 06:23:44;;;;;;;29.50;6.13;;;7.30;99.90;;;;;;5084045;28;20417;-66
2021/04/22 06:26:14;;;;;;;29.67;5.77;;;7.50;99.90;;;;;;5084351;28;20512;-66
2021/04/22 06:28:42;;;;;;;17.83;5.67;;;7.70;99.90;;;;;;5084177;28;20344;-66
2021/04/22 06:31:10;;;;;;;15.97;5.80;;;7.70;99.90;;;;;;5080658;28;20274;-66
2021/04/22 06:33:38;;;;;;;25.47;5.50;;;7.70;99.90;;;;;;5073720;28;20211;-66
2021/04/22 06:36:06;;;;;;;24.90;5.87;;;8.10;99.90;;;;;;5081154;28;20217;-66
2021/04/22 06:38:33;;;;;;;15.10;5.23;;;8.30;99.90;;;;;;5091136;28;20187;-66
2021/04/22 06:41:01;;;;;;;16.43;5.57;;;8.40;99.90;;;;;;5087706;28;20313;-66
2021/04/22 06:43:29;;;;;;;17.43;5.20;;;8.90;99.90;;;;;;5096590;28;20337;-66
2021/04/22 06:45:56;;;;;;;20.43;5.53;;;9.10;99.90;;;;;;5083819;28;20203;-66
2021/04/22 06:48:30;;;;;;;13.43;5.23;;;9.30;99.90;;;;;;5086332;28;20200;-66
2021/04/22 06:50:59;;;;;;;18.57;5.80;;;9.50;99.90;;;;;;5087013;28;20278;-66
2021/04/22 06:53:26;;;;;;;15.77;6.07;;;9.60;99.90;;;;;;5088863;28;20242;-66
2021/04/22 06:55:53;;;;;;;17.47;6.07;;;10.20;99.90;;;;;;5101503;28;20416;-66
2021/04/22 06:58:22;;;;;;;15.50;5.50;;;10.70;99.90;;;;;;5099177;28;20176;-66
2021/04/22 07:00:49;;;;;;;20.73;5.47;;;10.70;99.90;;;;;;5088523;28;20180;-67
2021/04/22 07:03:18;;;;;;;16.07;5.47;;;10.90;99.90;;;;;;5085362;28;20199;-66
2021/04/22 07:05:46;;;;;;;16.00;5.10;;;10.30;99.90;;;;;;5096151;28;20203;-66
2021/04/22 07:08:13;;;;;;;16.73;4.60;;;10.10;99.90;;;;;;5096142;28;20425;-66
2021/04/22 07:10:43;;;;;;;17.73;5.17;;;10.20;99.90;;;;;;5090690;28;20195;-66
2021/04/22 07:13:11;;;;;;;20.93;5.07;;;10.10;99.90;;;;;;5095939;28;20343;-66
2021/04/22 07:15:39;;;;;;;15.60;5.10;;;9.90;99.90;;;;;;5090659;28;20198;-66
2021/04/22 07:18:08;;;;;;;10.07;5.03;;;9.50;99.90;;;;;;5086800;28;20253;-66
2021/04/22 07:21:13;;;;;;;17.33;5.40;;;9.70;99.90;;;;;;5092257;28;20254;-66
2021/04/22 07:23:42;;;;;;;18.33;5.13;;;10.10;99.90;;;;;;5103084;28;20195;-66
2021/04/22 07:26:10;;;;;;;16.77;4.67;;;10.10;99.90;;;;;;5088037;28;20180;-66
2021/04/22 07:28:39;;;;;;;15.00;4.90;;;10.30;99.90;;;;;;5086810;28;20188;-66
2021/04/22 07:31:18;;;;;;;13.40;4.50;;;10.40;99.90;;;;;;5081680;28;20226;-66
2021/04/22 07:33:47;;;;;;;16.07;4.77;;;10.80;99.90;;;;;;5086878;28;20199;-66
2021/04/22 07:36:15;;;;;;;13.93;4.43;;;11.20;99.90;;;;;;5090687;28;20196;-67
2021/04/22 07:38:43;;;;;;;16.80;4.33;;;11.60;99.90;;;;;;5088070;28;20210;-66
2021/04/22 07:41:11;;;;;;;14.53;4.47;;;12.20;99.90;;;;;;5088549;28;20196;-67
2021/04/22 07:43:38;;;;;;;20.70;4.90;;;12.60;99.90;;;;;;5089033;28;20246;-66
2021/04/22 07:46:07;;;;;;;12.97;4.23;;;12.80;99.90;;;;;;5086382;28;20184;-67
2021/04/22 07:48:35;;;;;;;14.57;4.00;;;12.60;99.90;;;;;;5073024;28;20188;-67
2021/04/22 07:51:03;;;;;;;10.93;4.13;;;13.00;99.90;;;;;;5084498;28;20212;-66
2021/04/22 07:53:33;;;;;;;10.93;4.27;;;12.60;99.90;;;;;;5084476;28;20184;-67
2021/04/22 07:56:00;;;;;;;9.20;4.10;;;13.20;99.90;;;;;;5079634;28;20207;-67
2021/04/22 07:58:31;;;;;;;13.50;4.17;;;13.10;99.90;;;;;;5078858;28;20197;-66
2021/04/22 08:01:00;;;;;;;15.43;4.43;;;12.90;99.90;;;;;;5083117;28;20202;-67
2021/04/22 08:03:28;;;;;;;9.33;3.80;;;13.10;99.90;;;;;;5086269;28;20204;-67
2021/04/22 08:05:57;;;;;;;12.63;4.00;;;13.60;99.90;;;;;;5081804;28;20192;-67
2021/04/22 08:08:27;;;;;;;14.00;3.83;;;13.90;99.90;;;;;;5084425;28;20253;-67
2021/04/22 08:10:56;;;;;;;11.70;4.03;;;13.80;99.90;;;;;;5081951;28;20242;-67
2021/04/22 08:13:24;;;;;;;12.77;4.60;;;14.10;99.90;;;;;;5079795;28;20444;-67
2021/04/22 08:15:53;;;;;;;16.60;4.13;;;14.60;99.90;;;;;;5082686;28;20180;-68
2021/04/22 08:18:23;;;;;;;10.97;4.13;;;14.70;99.90;;;;;;5082089;28;20385;-67
2021/04/22 08:20:52;;;;;;;15.10;4.80;;;14.10;99.90;;;;;;5084600;28;20181;-67
2021/04/22 08:23:20;;;;;;;14.40;5.37;;;13.70;99.90;;;;;;5079789;28;20184;-67
2021/04/22 08:25:51;;;;;;;15.57;4.43;;;13.30;99.90;;;;;;5086568;28;20230;-67
2021/04/22 08:28:20;;;;;;;12.53;5.07;;;14.40;99.90;;;;;;5082655;28;20181;-68
2021/04/22 08:30:50;;;;;;;14.73;4.93;;;14.80;99.90;;;;;;5085074;28;20204;-67
2021/04/22 08:33:19;;;;;;;20.27;5.17;;;14.40;99.90;;;;;;5081998;28;20180;-67
2021/04/22 08:35:47;;;;;;;14.40;4.40;;;14.50;99.90;;;;;;5083973;28;20185;-67
2021/04/22 08:38:15;;;;;;;10.70;4.10;;;15.00;99.90;;;;;;5082174;28;20188;-68
2021/04/22 08:40:44;;;;;;;11.37;4.47;;;15.00;99.90;;;;;;5083343;28;20188;-68
2021/04/22 08:43:11;;;;;;;12.60;4.00;;;15.40;99.90;;;;;;5086979;28;20184;-68
2021/04/22 08:45:43;;;;;;;14.50;4.83;;;16.10;99.90;;;;;;5091256;28;21181;-68
2021/04/22 08:48:12;;;;;;;8.87;3.87;;;16.60;99.70;;;;;;5082272;28;20199;-68
2021/04/22 08:50:46;;;;;;;10.20;3.73;;;16.70;99.90;;;;;;5081447;28;20184;-68
2021/04/22 08:53:16;;;;;;;13.07;4.13;;;16.90;99.40;;;;;;5084472;28;20180;-69
2021/04/22 08:55:47;;;;;;;14.50;4.23;;;16.80;99.10;;;;;;5084924;28;20352;-68
2021/04/22 08:58:15;;;;;;;11.67;4.00;;;16.70;99.60;;;;;;5088969;28;20188;-68
2021/04/22 09:00:45;;;;;;;12.53;4.20;;;17.70;99.90;;;;;;5082228;28;20222;-68
2021/04/22 09:03:13;;;;;;;18.03;4.30;;;17.40;98.90;;;;;;5082920;28;20381;-68
2021/04/22 09:05:42;;;;;;;11.10;4.10;;;17.20;97.80;;;;;;5082817;28;20202;-68
2021/04/22 09:08:10;;;;;;;11.43;4.27;;;17.10;98.10;;;;;;5078743;28;20247;-68
2021/04/22 09:10:38;;;;;;;11.13;4.00;;;17.10;97.50;;;;;;5082668;28;20207;-68
2021/04/22 09:13:08;;;;;;;9.37;3.70;;;16.90;98.00;;;;;;5084932;28;20212;-68
2021/04/22 09:15:37;;;;;;;9.80;4.07;;;16.90;97.30;;;;;;5085570;28;20188;-68
2021/04/22 09:18:08;;;;;;;13.63;4.23;;;17.10;96.90;;;;;;5081666;28;20216;-68
2021/04/22 09:20:41;;;;;;;16.73;4.37;;;16.70;98.90;;;;;;5084096;28;20191;-67
2021/04/22 09:23:19;;;;;;;9.57;3.73;;;16.50;96.90;;;;;;5085235;28;20278;-68
2021/04/22 09:25:47;;;;;;;16.03;4.13;;;16.50;97.10;;;;;;5086138;28;20191;-68
2021/04/22 09:28:15;;;;;;;12.20;4.03;;;16.70;96.90;;;;;;5081930;28;20322;-68
2021/04/22 09:30:45;;;;;;;11.53;3.73;;;16.90;97.50;;;;;;5082660;28;20207;-68
2021/04/22 09:33:21;;;;;;;8.80;4.03;;;17.20;97.40;;;;;;5081942;28;20219;-68
2021/04/22 09:35:49;;;;;;;15.47;4.30;;;17.60;97.00;;;;;;5086701;28;20230;-68
2021/04/22 09:38:18;;;;;;;11.37;4.20;;;17.80;95.50;;;;;;5081968;28;20259;-68
2021/04/22 09:40:52;;;;;;;13.93;3.67;;;17.10;95.70;;;;;;5081269;28;20183;-68
2021/04/22 09:43:20;;;;;;;16.47;4.20;;;17.40;96.50;;;;;;5092599;28;20183;-68
2021/04/22 09:45:50;;;;;;;10.40;3.97;;;17.90;98.60;;;;;;5079770;28;20180;-68
2021/04/22 09:48:27;;;;;;;13.47;4.33;;;18.20;94.90;;;;;;5082773;28;20184;-69
2021/04/22 09:50:56;;;;;;;11.30;4.00;;;18.40;94.80;;;;;;5096264;28;20197;-68
2021/04/22 09:53:25;;;;;;;16.13;4.17;;;18.30;94.20;;;;;;5084335;28;20758;-68
2021/04/22 09:55:56;;;;;;;14.87;4.27;;;18.00;94.00;;;;;;5079843;28;20180;-68
2021/04/22 09:58:29;;;;;;;13.10;3.80;;;17.40;94.20;;;;;;5081623;28;20204;-68
2021/04/22 10:00:59;;;;;;;14.10;3.77;;;17.20;95.80;;;;;;5084532;28;20372;-69
2021/04/22 10:03:27;;;;;;;10.47;4.17;;;18.00;96.40;;;;;;5079499;28;20221;-68
2021/04/22 10:05:58;;;;;;;14.63;4.37;;;18.90;96.20;;;;;;5081227;28;20252;-69
2021/04/22 10:08:26;;;;;;;14.07;4.53;;;19.30;94.10;;;;;;5083779;28;20196;-68
2021/04/22 10:11:00;;;;;;;10.23;4.10;;;18.90;93.00;;;;;;5081242;28;20256;-68
2021/04/22 10:13:30;;;;;;;11.40;4.37;;;18.40;93.30;;;;;;5079572;28;20188;-68
2021/04/22 10:15:59;;;;;;;11.70;3.83;;;18.70;93.00;;;;;;5076965;28;20188;-68
2021/04/22 10:18:38;;;;;;;13.83;4.10;;;18.60;93.30;;;;;;5080155;28;20192;-68
2021/04/22 10:21:06;;;;;;;6.67;3.50;;;19.10;92.70;;;;;;5079921;28;20182;-68
2021/04/22 10:23:34;;;;;;;11.93;3.73;;;19.00;92.30;;;;;;5067283;28;20177;-68
2021/04/22 10:26:01;;;;;;;11.07;4.00;;;18.80;92.30;;;;;;5087802;28;20230;-68
2021/04/22 10:28:31;;;;;;;10.70;3.60;;;18.60;92.60;;;;;;5079223;28;20200;-69
2021/04/22 10:30:58;;;;;;;8.03;3.83;;;19.20;92.80;;;;;;5079565;28;20310;-68
2021/04/22 10:33:26;;;;;;;9.60;3.50;;;18.30;91.70;;;;;;5077395;28;20237;-68
2021/04/22 10:35:55;;;;;;;11.37;3.87;;;18.50;94.80;;;;;;5073848;28;20296;-69
2021/04/22 10:38:23;;;;;;;10.27;3.50;;;18.80;92.10;;;;;;5087368;28;20312;-69
2021/04/22 10:40:52;;;;;;;11.30;3.77;;;19.40;92.50;;;;;;5080256;28;20172;-69
2021/04/22 10:43:22;;;;;;;10.47;3.80;;;18.80;91.20;;;;;;5083327;28;20176;-68
2021/04/22 10:45:50;;;;;;;10.30;3.97;;;18.90;91.00;;;;;;5072513;28;20207;-68
2021/04/22 10:48:18;;;;;;;9.30;3.37;;;18.60;92.80;;;;;;5076720;28;20180;-68
2021/04/22 10:50:48;;;;;;;13.07;4.00;;;18.60;93.40;;;;;;5079197;28;20204;-69
2021/04/22 10:53:19;;;;;;;9.13;3.67;;;19.60;93.30;;;;;;5077471;28;20244;-69
2021/04/22 10:55:48;;;;;;;11.67;4.47;;;19.90;91.30;;;;;;5080983;28;20306;-68
2021/04/22 10:58:18;;;;;;;11.23;3.53;;;18.60;91.00;;;;;;5079508;28;20214;-68
2021/04/22 11:00:49;;;;;;;11.37;3.97;;;16.70;89.80;;;;;;5087234;28;20228;-69
2021/04/22 11:03:29;;;;;;;7.97;4.00;;;16.90;92.40;;;;;;5079626;28;20190;-68
2021/04/22 11:05:57;;;;;;;9.93;4.10;;;17.60;92.10;;;;;;5073999;28;20285;-68
2021/04/22 11:08:34;;;;;;;12.07;3.73;;;18.00;91.90;;;;;;5079025;28;20184;-68
2021/04/22 11:11:03;;;;;;;10.73;4.23;;;18.10;90.50;;;;;;5077892;28;20241;-68
2021/04/22 11:13:32;;;;;;;11.33;4.13;;;18.60;92.00;;;;;;5079551;28;20257;-68
2021/04/22 11:16:04;;;;;;;10.87;3.83;;;18.80;92.90;;;;;;5076843;28;20180;-69
2021/04/22 11:18:41;;;;;;;8.70;3.93;;;18.70;91.90;;;;;;5064525;28;34002;-68
2021/04/22 11:21:26;;;;;;;8.37;4.33;;;18.10;92.60;;;;;;5035519;28;20385;-68
2021/04/22 11:23:56;;;;;;;9.93;4.00;;;18.10;91.90;;;;;;5034539;28;20205;-68
2021/04/22 11:26:26;;;;;;;10.33;4.20;;;18.50;92.20;;;;;;5037758;28;20255;-68
2021/04/22 11:28:55;;;;;;;10.43;4.07;;;17.70;92.40;;;;;;5036704;28;20405;-68
2021/04/22 11:31:25;;;;;;;9.53;3.93;;;16.60;92.30;;;;;;5040118;28;20189;-68
2021/04/22 11:34:05;;;;;;;13.50;4.97;;;16.30;91.80;;;;;;5044494;28;20200;-68
2021/04/22 11:36:36;;;;;;;8.17;4.00;;;15.40;92.80;;;;;;5034465;28;20244;-69
2021/04/22 11:39:06;;;;;;;10.10;4.40;;;15.60;95.20;;;;;;5051131;28;20178;-68
2021/04/22 11:41:35;;;;;;;13.73;4.17;;;16.30;95.90;;;;;;5040131;28;20193;-68
2021/04/22 11:44:06;;;;;;;10.47;4.10;;;17.10;95.30;;;;;;5036382;28;20190;-69
2021/04/22 11:46:41;;;;;;;13.07;4.13;;;17.60;95.70;;;;;;5045146;28;20208;-68
2021/04/22 11:49:23;;;;;;;10.60;4.13;;;17.70;91.40;;;;;;5035339;28;20592;-69
2021/04/22 11:51:50;;;;;;;14.77;4.37;;;17.70;94.20;;;;;;5035926;28;20251;-69
2021/04/22 11:54:20;;;;;;;16.47;4.03;;;18.00;92.20;;;;;;5040136;28;20193;-68
2021/04/22 11:56:56;;;;;;;11.87;4.27;;;17.80;91.50;;;;;;5034640;28;20193;-69
2021/04/22 11:59:24;;;;;;;13.87;4.07;;;16.80;91.30;;;;;;5051430;28;20182;-69
2021/04/22 12:01:58;;;;;;;9.37;4.20;;;17.00;93.60;;;;;;5038660;28;20181;-69
2021/04/22 12:04:36;;;;;;;13.50;3.87;;;16.30;92.30;;;;;;5035622;28;20193;-68
2021/04/22 12:07:06;;;;;;;9.23;3.47;;;16.80;95.80;;;;;;5035804;28;20182;-69
2021/04/22 12:09:33;;;;;;;11.40;3.73;;;17.50;93.10;;;;;;5037954;28;20185;-69
2021/04/22 12:12:13;;;;;;;11.03;4.00;;;17.40;93.80;;;;;;5038188;28;20209;-69
2021/04/22 12:14:42;;;;;;;10.03;3.70;;;16.90;92.10;;;;;;5034955;28;20207;-68
2021/04/22 12:17:23;;;;;;;12.73;4.00;;;16.30;92.20;;;;;;5030375;28;20222;-69
2021/04/22 12:19:52;;;;;;;10.67;4.20;;;16.10;92.40;;;;;;5035983;28;20296;-69
2021/04/22 12:22:32;;;;;;;10.37;3.70;;;16.10;94.50;;;;;;5038475;28;20208;-69
2021/04/22 12:25:00;;;;;;;8.10;3.60;;;16.50;92.30;;;;;;5035166;28;20196;-69
2021/04/22 12:27:30;;;;;;;9.50;3.50;;;15.40;93.50;;;;;;5038138;28;20361;-69
2021/04/22 12:29:57;;;;;;;11.10;3.87;;;16.20;94.10;;;;;;5037083;28;20181;-68
2021/04/22 12:32:25;;;;;;;11.10;3.50;;;16.80;94.80;;;;;;5036700;28;20248;-69
2021/04/22 12:34:54;;;;;;;7.87;3.60;;;17.30;93.00;;;;;;5040034;28;20289;-68
2021/04/22 12:37:23;;;;;;;8.93;3.60;;;17.10;94.70;;;;;;5035834;28;20227;-68
2021/04/22 12:39:56;;;;;;;10.27;3.57;;;17.30;93.30;;;;;;5037105;28;20403;-68
2021/04/22 12:42:25;;;;;;;9.50;3.20;;;17.30;92.20;;;;;;5038598;28;20232;-68
2021/04/22 12:44:56;;;;;;;13.03;3.63;;;17.00;95.20;;;;;;5037453;28;20186;-69
2021/04/22 12:47:35;;;;;;;12.13;3.50;;;16.50;91.80;;;;;;5035519;28;20197;-67
2021/04/22 12:50:06;;;;;;;9.73;3.50;;;16.20;92.10;;;;;;5040930;28;20208;-68
2021/04/22 12:52:33;;;;;;;13.47;3.90;;;16.00;94.30;;;;;;5039277;28;20217;-67
2021/04/22 12:55:04;;;;;;;10.77;3.77;;;15.80;92.20;;;;;;5029066;28;20182;-67
2021/04/22 12:57:32;;;;;;;9.40;3.60;;;15.30;92.10;;;;;;5035925;28;20190;-68